Terminal Aerodrome Forecast
Issued by NWS

Home | Current Version | Previous Version | Text Only | Print | Product List | Glossary On
Versions: 1 2 3 4 5 6 7 8 9 10 11 12 13 14 15 16
000
FTUS42 KMLB 280521
TAFFPR
TAF
KFPR 280521Z 2806/2906 28003KT P6SM FEW005 SCT025 BKN250
     FM281600 07009KT P6SM VCTS SCT020CB SCT250
      TEMPO 2818/2821 3SM TSRA BKN025CB
     FM282200 08009KT P6SM SCT035 BKN250=

USA.gov is the U.S. government's official web portal to all federal, state and local government web resources and services.